< < Back
Terminal Aerodrome Forecast


Current Version              Previous Versions:   1  2  3  4  5  6  7  8  9  

Terminal Aerodrome Forecast

653
FTUS44 KMOB 190900 AAA
TAFMOB
TAF AMD
KMOB 190946Z 1910/2006 35010KT P6SM VCSH FEW008 BKN025
     FM191500 36011KT P6SM SCT035 SCT250=

Latest METAR

955
SAUS80 KWBC 200300 CCA
MTRMOB
METAR KMOB 200256Z 00000KT 10SM CLR 14/12 A3011 RMK AO2 SLP196 T01440122
51017


USA.gov is the U.S. government's official web portal to all federal, state and local government web resources and services.